AFR934 LFPG-FMMI
Flight info
| Callsign | AFR934 |
|---|---|
| Flight time | N/A |
| Altitude | 35000 |
| Route | OKASI DCT OKEKO DCT MOU DCT MADIV DCT MOKIP DCT TUFTA DCT KOGAS DCT MEDAM DCT NITAM DCT MOGBO DCT ALAXI/N0480F370 DCT RUTOM DCT SALUN N705 BOPIX N710 TAKRI P751 LXR/N0479F390 M999 JDW G650 RASKA/N0488F380 G650 ULONI/N0486F390 UV790 SB UR775 MOGDU/N0482F410 UR775 UNPAR/N0484F400 UR775 BERIL/N0482F410 UR775 MG UA401 TN TN1V |
| Aircraft | B772/H-SDE2E3FGHIJ5LORVWXY/LB1D1 |
Departure
| Time | N/A |
|---|---|
| Airport | Charles de Gaulle International Airport (LFPG) |
Arrival
| Time | 2026-04-23 16:18 |
|---|---|
| Airport | Ivato International Airport (FMMI) |
| Time | Latitude | Longitude | Altitude | Speed | Heading |
|---|---|---|---|---|---|
| 2026-04-23 15:19 | -13.08998 | 46.18101 | 38862 ft | 469 kts | 176° |
| 2026-04-23 15:20 | -13.15493 | 46.18499 | 38871 ft | 469 kts | 176° |
| 2026-04-23 15:20 | -13.22025 | 46.18900 | 38865 ft | 468 kts | 176° |
| 2026-04-23 15:21 | -13.28579 | 46.19302 | 38863 ft | 469 kts | 176° |
| 2026-04-23 15:21 | -13.35091 | 46.19702 | 38869 ft | 470 kts | 176° |
| 2026-04-23 15:22 | -13.41667 | 46.20106 | 38861 ft | 469 kts | 176° |
| 2026-04-23 15:22 | -13.48148 | 46.20505 | 38868 ft | 468 kts | 176° |
| 2026-04-23 15:23 | -13.54670 | 46.20906 | 38865 ft | 468 kts | 176° |
| 2026-04-23 15:23 | -13.61182 | 46.21308 | 38867 ft | 468 kts | 176° |
| 2026-04-23 15:24 | -13.67695 | 46.21710 | 38866 ft | 468 kts | 176° |
| 2026-04-23 15:24 | -13.74233 | 46.22115 | 38868 ft | 467 kts | 176° |
| 2026-04-23 15:25 | -13.80721 | 46.22516 | 38860 ft | 469 kts | 176° |
| 2026-04-23 15:25 | -13.87264 | 46.22921 | 38874 ft | 469 kts | 176° |
| 2026-04-23 15:26 | -13.93770 | 46.23323 | 38867 ft | 468 kts | 176° |
| 2026-04-23 15:26 | -14.00332 | 46.23730 | 38865 ft | 469 kts | 176° |
| 2026-04-23 15:27 | -14.06807 | 46.24131 | 38860 ft | 467 kts | 176° |
| 2026-04-23 15:27 | -14.13349 | 46.24537 | 38869 ft | 467 kts | 176° |
| 2026-04-23 15:28 | -14.19815 | 46.24939 | 38868 ft | 466 kts | 176° |
| 2026-04-23 15:28 | -14.26304 | 46.25342 | 38864 ft | 466 kts | 176° |
| 2026-04-23 15:29 | -14.32794 | 46.25745 | 38876 ft | 464 kts | 176° |
| 2026-04-23 15:29 | -14.39271 | 46.26148 | 38877 ft | 466 kts | 176° |
| 2026-04-23 15:30 | -14.45732 | 46.26551 | 38877 ft | 463 kts | 176° |
| 2026-04-23 15:30 | -14.52216 | 46.26955 | 38880 ft | 465 kts | 176° |
| 2026-04-23 15:31 | -14.58664 | 46.27357 | 38874 ft | 464 kts | 176° |
| 2026-04-23 15:31 | -14.65157 | 46.27763 | 38871 ft | 464 kts | 176° |
| 2026-04-23 15:32 | -14.71586 | 46.28165 | 38872 ft | 464 kts | 176° |
| 2026-04-23 15:32 | -14.78052 | 46.28568 | 38868 ft | 463 kts | 176° |
| 2026-04-23 15:33 | -14.84476 | 46.28969 | 38867 ft | 463 kts | 176° |
| 2026-04-23 15:33 | -14.90933 | 46.29372 | 38870 ft | 462 kts | 176° |
| 2026-04-23 15:34 | -14.97370 | 46.29775 | 38864 ft | 461 kts | 176° |
| 2026-04-23 15:34 | -15.03804 | 46.30177 | 38856 ft | 462 kts | 175° |
| 2026-04-23 15:35 | -15.10234 | 46.30580 | 38863 ft | 463 kts | 176° |
| 2026-04-23 15:35 | -15.16671 | 46.30983 | 38870 ft | 462 kts | 176° |
| 2026-04-23 15:36 | -15.23142 | 46.31389 | 38872 ft | 463 kts | 175° |
| 2026-04-23 15:36 | -15.29528 | 46.31789 | 38869 ft | 463 kts | 175° |
| 2026-04-23 15:37 | -15.35972 | 46.32194 | 38869 ft | 460 kts | 175° |
| 2026-04-23 15:37 | -15.42354 | 46.32594 | 38868 ft | 460 kts | 175° |
| 2026-04-23 15:38 | -15.48763 | 46.32997 | 38870 ft | 461 kts | 175° |
| 2026-04-23 15:38 | -15.55183 | 46.33401 | 38869 ft | 460 kts | 175° |
| 2026-04-23 15:39 | -15.61622 | 46.33807 | 38872 ft | 462 kts | 175° |
| 2026-04-23 15:39 | -15.67950 | 46.34736 | 38876 ft | 460 kts | 165° |
| 2026-04-23 15:40 | -15.74153 | 46.36488 | 38874 ft | 460 kts | 164° |
| 2026-04-23 15:40 | -15.80288 | 46.38243 | 38873 ft | 460 kts | 164° |
| 2026-04-23 15:41 | -15.86483 | 46.40019 | 38870 ft | 460 kts | 164° |
| 2026-04-23 15:41 | -15.92675 | 46.41796 | 38873 ft | 458 kts | 164° |
| 2026-04-23 15:42 | -15.98811 | 46.43560 | 38879 ft | 459 kts | 164° |
| 2026-04-23 15:42 | -16.04979 | 46.45334 | 38882 ft | 459 kts | 164° |
| 2026-04-23 15:43 | -16.11107 | 46.47097 | 38885 ft | 457 kts | 164° |
| 2026-04-23 15:43 | -16.17313 | 46.48885 | 38883 ft | 457 kts | 164° |
| 2026-04-23 15:44 | -16.23435 | 46.50649 | 38884 ft | 457 kts | 163° |
| 2026-04-23 15:44 | -16.29553 | 46.52414 | 38880 ft | 457 kts | 164° |
| 2026-04-23 15:45 | -16.35701 | 46.54187 | 38883 ft | 455 kts | 163° |
| 2026-04-23 15:45 | -16.41836 | 46.55959 | 38883 ft | 457 kts | 164° |
| 2026-04-23 15:46 | -16.47946 | 46.57725 | 38884 ft | 454 kts | 164° |
| 2026-04-23 15:46 | -16.54058 | 46.59493 | 38887 ft | 454 kts | 164° |
| 2026-04-23 15:47 | -16.60108 | 46.61243 | 38888 ft | 454 kts | 163° |
| 2026-04-23 15:47 | -16.66210 | 46.63010 | 38886 ft | 453 kts | 163° |
| 2026-04-23 15:48 | -16.72290 | 46.64772 | 38888 ft | 454 kts | 164° |
| 2026-04-23 15:48 | -16.78401 | 46.66544 | 38892 ft | 453 kts | 163° |
| 2026-04-23 15:49 | -16.84487 | 46.68310 | 38893 ft | 453 kts | 163° |
| 2026-04-23 15:49 | -16.90569 | 46.70076 | 38895 ft | 454 kts | 163° |
| 2026-04-23 15:50 | -16.96649 | 46.71843 | 38894 ft | 452 kts | 163° |
| 2026-04-23 15:50 | -17.02713 | 46.73606 | 38897 ft | 452 kts | 163° |
| 2026-04-23 15:51 | -17.08774 | 46.75370 | 38911 ft | 451 kts | 163° |
| 2026-04-23 15:51 | -17.14861 | 46.77142 | 38936 ft | 450 kts | 163° |
| 2026-04-23 15:52 | -17.20930 | 46.78910 | 38959 ft | 449 kts | 163° |
| 2026-04-23 15:52 | -17.26966 | 46.80670 | 38984 ft | 449 kts | 163° |
| 2026-04-23 15:53 | -17.32988 | 46.82427 | 38991 ft | 450 kts | 163° |
| 2026-04-23 15:53 | -17.35987 | 46.83302 | 38810 ft | 442 kts | 163° |
| 2026-04-23 15:53 | -17.38916 | 46.84157 | 37946 ft | 442 kts | 163° |
| 2026-04-23 15:53 | -17.41912 | 46.85032 | 37047 ft | 442 kts | 163° |
| 2026-04-23 15:54 | -17.44858 | 46.85893 | 36223 ft | 441 kts | 163° |
| 2026-04-23 15:54 | -17.47785 | 46.86749 | 35399 ft | 441 kts | 163° |
| 2026-04-23 15:54 | -17.50739 | 46.87613 | 34535 ft | 440 kts | 163° |
| 2026-04-23 15:54 | -17.53715 | 46.88483 | 33674 ft | 440 kts | 163° |
| 2026-04-23 15:55 | -17.56634 | 46.89337 | 32817 ft | 441 kts | 163° |
| 2026-04-23 15:55 | -17.59659 | 46.90223 | 31950 ft | 461 kts | 163° |
| 2026-04-23 15:55 | -17.62759 | 46.91132 | 31014 ft | 468 kts | 164° |
| 2026-04-23 15:55 | -17.65901 | 46.92052 | 30363 ft | 462 kts | 164° |
| 2026-04-23 15:56 | -17.68942 | 46.92943 | 29884 ft | 453 kts | 165° |
| 2026-04-23 15:56 | -17.71969 | 46.93830 | 29345 ft | 448 kts | 165° |
| 2026-04-23 15:56 | -17.74981 | 46.94713 | 28768 ft | 445 kts | 165° |
| 2026-04-23 15:56 | -17.77959 | 46.95586 | 28192 ft | 441 kts | 165° |
| 2026-04-23 15:57 | -17.80915 | 46.96453 | 27609 ft | 439 kts | 165° |
| 2026-04-23 15:57 | -17.83814 | 46.97304 | 27030 ft | 436 kts | 165° |
| 2026-04-23 15:57 | -17.86733 | 46.98161 | 26448 ft | 433 kts | 164° |
| 2026-04-23 15:57 | -17.89639 | 46.99014 | 25845 ft | 431 kts | 164° |
| 2026-04-23 15:58 | -17.92533 | 46.99864 | 25244 ft | 428 kts | 164° |
| 2026-04-23 15:58 | -17.95360 | 47.00695 | 24656 ft | 425 kts | 164° |
| 2026-04-23 15:58 | -17.98206 | 47.01532 | 24048 ft | 422 kts | 164° |
| 2026-04-23 15:58 | -18.01028 | 47.02363 | 23454 ft | 419 kts | 164° |
| 2026-04-23 15:59 | -18.03837 | 47.03189 | 22853 ft | 416 kts | 163° |
| 2026-04-23 15:59 | -18.06623 | 47.04010 | 22260 ft | 413 kts | 163° |
| 2026-04-23 15:59 | -18.09349 | 47.04813 | 21696 ft | 410 kts | 163° |
| 2026-04-23 15:59 | -18.12133 | 47.05633 | 21092 ft | 407 kts | 163° |
| 2026-04-23 16:00 | -18.14886 | 47.06444 | 20485 ft | 406 kts | 163° |
| 2026-04-23 16:00 | -18.17569 | 47.07235 | 19876 ft | 403 kts | 163° |
| 2026-04-23 16:00 | -18.20272 | 47.08033 | 19267 ft | 400 kts | 162° |
| 2026-04-23 16:00 | -18.22962 | 47.08826 | 18656 ft | 397 kts | 162° |
| 2026-04-23 16:01 | -18.25595 | 47.09603 | 18047 ft | 395 kts | 162° |
| 2026-04-23 16:01 | -18.28253 | 47.10388 | 17417 ft | 392 kts | 162° |
| 2026-04-23 16:01 | -18.30814 | 47.11343 | 16807 ft | 387 kts | 153° |
| 2026-04-23 16:01 | -18.33104 | 47.12750 | 16213 ft | 382 kts | 143° |
| 2026-04-23 16:02 | -18.35229 | 47.14440 | 15596 ft | 379 kts | 141° |
| 2026-04-23 16:02 | -18.37294 | 47.16132 | 14977 ft | 377 kts | 141° |
| 2026-04-23 16:02 | -18.39363 | 47.17833 | 14359 ft | 374 kts | 141° |
| 2026-04-23 16:02 | -18.41418 | 47.19529 | 13753 ft | 372 kts | 141° |
| 2026-04-23 16:03 | -18.43463 | 47.21218 | 13141 ft | 369 kts | 141° |
| 2026-04-23 16:03 | -18.45484 | 47.22891 | 12524 ft | 367 kts | 141° |
| 2026-04-23 16:03 | -18.47502 | 47.24562 | 11908 ft | 364 kts | 141° |
| 2026-04-23 16:03 | -18.49471 | 47.26194 | 11308 ft | 362 kts | 141° |
| 2026-04-23 16:04 | -18.51449 | 47.27835 | 11000 ft | 349 kts | 141° |
| 2026-04-23 16:04 | -18.53322 | 47.29390 | 10907 ft | 333 kts | 142° |
| 2026-04-23 16:04 | -18.55127 | 47.30888 | 10784 ft | 319 kts | 142° |
| 2026-04-23 16:04 | -18.56903 | 47.32197 | 10600 ft | 308 kts | 154° |
| 2026-04-23 16:05 | -18.58262 | 47.32593 | 10412 ft | 306 kts | 174° |
| 2026-04-23 16:05 | -18.60983 | 47.32030 | 10158 ft | 298 kts | 206° |
| 2026-04-23 16:05 | -18.62688 | 47.30837 | 10083 ft | 285 kts | 208° |
| 2026-04-23 16:05 | -18.64490 | 47.29998 | 9796 ft | 281 kts | 202° |
| 2026-04-23 16:06 | -18.66168 | 47.28870 | 9387 ft | 284 kts | 212° |
| 2026-04-23 16:06 | -18.67918 | 47.27989 | 9167 ft | 274 kts | 198° |
| 2026-04-23 16:06 | -18.69574 | 47.27005 | 9090 ft | 266 kts | 214° |
| 2026-04-23 16:06 | -18.71147 | 47.26075 | 9034 ft | 251 kts | 198° |
| 2026-04-23 16:07 | -18.72677 | 47.25259 | 8927 ft | 245 kts | 215° |
| 2026-04-23 16:07 | -18.74052 | 47.24204 | 8856 ft | 235 kts | 214° |
| 2026-04-23 16:07 | -18.75259 | 47.23043 | 8625 ft | 237 kts | 227° |
| 2026-04-23 16:07 | -18.76262 | 47.21633 | 8362 ft | 238 kts | 233° |
| 2026-04-23 16:08 | -18.77169 | 47.20150 | 8094 ft | 240 kts | 235° |
| 2026-04-23 16:08 | -18.78044 | 47.18666 | 7864 ft | 240 kts | 236° |
| 2026-04-23 16:08 | -18.78931 | 47.17154 | 7608 ft | 241 kts | 235° |
| 2026-04-23 16:08 | -18.79815 | 47.15646 | 7369 ft | 241 kts | 235° |
| 2026-04-23 16:09 | -18.80610 | 47.14106 | 7111 ft | 244 kts | 251° |
| 2026-04-23 16:09 | -18.80656 | 47.12331 | 7056 ft | 249 kts | 285° |
| 2026-04-23 16:09 | -18.79776 | 47.10735 | 6889 ft | 255 kts | 319° |
| 2026-04-23 16:09 | -18.78250 | 47.09911 | 6703 ft | 242 kts | 355° |
| 2026-04-23 16:10 | -18.76643 | 47.10079 | 6775 ft | 233 kts | 26° |
| 2026-04-23 16:10 | -18.75337 | 47.11063 | 6910 ft | 229 kts | 52° |
| 2026-04-23 16:10 | -18.74619 | 47.12518 | 7032 ft | 224 kts | 83° |
| 2026-04-23 16:10 | -18.74626 | 47.14136 | 7063 ft | 222 kts | 97° |
| 2026-04-23 16:11 | -18.74812 | 47.15758 | 7063 ft | 221 kts | 99° |
| 2026-04-23 16:11 | -18.75034 | 47.17384 | 7067 ft | 221 kts | 100° |
| 2026-04-23 16:11 | -18.75275 | 47.19000 | 7063 ft | 221 kts | 101° |
| 2026-04-23 16:11 | -18.75520 | 47.20555 | 7069 ft | 209 kts | 101° |
| 2026-04-23 16:12 | -18.75761 | 47.22025 | 7056 ft | 194 kts | 101° |
| 2026-04-23 16:12 | -18.75980 | 47.23382 | 7058 ft | 179 kts | 101° |
| 2026-04-23 16:12 | -18.76177 | 47.24641 | 7069 ft | 174 kts | 101° |
| 2026-04-23 16:12 | -18.76373 | 47.25914 | 7063 ft | 173 kts | 101° |
| 2026-04-23 16:13 | -18.76563 | 47.27169 | 7060 ft | 175 kts | 101° |
| 2026-04-23 16:13 | -18.76943 | 47.29677 | 7053 ft | 169 kts | 101° |
| 2026-04-23 16:13 | -18.77126 | 47.30885 | 6969 ft | 163 kts | 101° |
| 2026-04-23 16:14 | -18.77295 | 47.31998 | 6787 ft | 144 kts | 101° |
| 2026-04-23 16:14 | -18.77449 | 47.33001 | 6620 ft | 135 kts | 101° |
| 2026-04-23 16:14 | -18.77597 | 47.33971 | 6454 ft | 133 kts | 101° |
| 2026-04-23 16:14 | -18.77742 | 47.34937 | 6285 ft | 131 kts | 101° |
| 2026-04-23 16:15 | -18.77890 | 47.35884 | 6119 ft | 132 kts | 100° |
| 2026-04-23 16:15 | -18.78025 | 47.36833 | 5969 ft | 132 kts | 101° |
| 2026-04-23 16:15 | -18.78168 | 47.37794 | 5774 ft | 132 kts | 101° |
| 2026-04-23 16:15 | -18.78320 | 47.38747 | 5585 ft | 132 kts | 101° |
| 2026-04-23 16:16 | -18.78457 | 47.39696 | 5443 ft | 133 kts | 100° |
| 2026-04-23 16:16 | -18.78610 | 47.40666 | 5263 ft | 133 kts | 101° |
| 2026-04-23 16:16 | -18.78755 | 47.41618 | 5085 ft | 132 kts | 99° |
| 2026-04-23 16:16 | -18.78891 | 47.42583 | 4931 ft | 133 kts | 100° |
| 2026-04-23 16:17 | -18.79041 | 47.43551 | 4764 ft | 135 kts | 101° |
| 2026-04-23 16:17 | -18.79191 | 47.44548 | 4589 ft | 136 kts | 99° |
| 2026-04-23 16:17 | -18.79340 | 47.45522 | 4414 ft | 134 kts | 100° |
| 2026-04-23 16:17 | -18.79489 | 47.46491 | 4250 ft | 133 kts | 100° |
| 2026-04-23 16:18 | -18.79615 | 47.47338 | 4185 ft | 93 kts | 99° |
| 2026-04-23 16:18 | -18.79684 | 47.47805 | 4172 ft | 30 kts | 98° |
| 2026-04-23 16:18 | -18.79705 | 47.47948 | 4170 ft | 16 kts | 99° |
| 2026-04-23 16:18 | -18.79721 | 47.48057 | 4169 ft | 12 kts | 98° |
| 2026-04-23 16:19 | -18.79758 | 47.48112 | 4169 ft | 9 kts | 163° |
| 2026-04-23 16:19 | -18.79813 | 47.48107 | 4172 ft | 6 kts | 189° |
| 2026-04-23 16:19 | -18.79827 | 47.48105 | 4173 ft | 0 kts | 189° |
| 2026-04-23 16:19 | -18.79830 | 47.48105 | 4173 ft | 1 kts | 189° |
| 2026-04-23 16:20 | -18.79861 | 47.48100 | 4174 ft | 7 kts | 191° |
| 2026-04-23 16:20 | -18.79899 | 47.48055 | 4175 ft | 9 kts | 262° |
| 2026-04-23 16:20 | -18.79891 | 47.47981 | 4174 ft | 9 kts | 279° |
| 2026-04-23 16:20 | -18.79892 | 47.47932 | 4173 ft | 3 kts | 223° |
| 2026-04-23 16:21 | -18.79915 | 47.47923 | 4173 ft | 3 kts | 195° |
| 2026-04-23 16:21 | -18.79938 | 47.47918 | 4174 ft | 3 kts | 189° |
| 2026-04-23 16:21 | -18.79958 | 47.47915 | 4174 ft | 2 kts | 189° |
| 2026-04-23 16:21 | -18.79976 | 47.47912 | 4174 ft | 2 kts | 190° |
| 2026-04-23 16:22 | -18.79990 | 47.47909 | 4175 ft | 0 kts | 190° |